sensor_id;sensor_type;location;lat;lon;timestamp;temperature;humidity
16247;DHT22;8231;50.866;7.944;2022-10-31T00:00:48;8.10;99.90
16247;DHT22;8231;50.866;7.944;2022-10-31T00:03:18;8.10;99.90
16247;DHT22;8231;50.866;7.944;2022-10-31T00:05:47;8.10;99.90
16247;DHT22;8231;50.866;7.944;2022-10-31T00:08:16;8.20;99.90
16247;DHT22;8231;50.866;7.944;2022-10-31T00:10:45;8.00;99.90
16247;DHT22;8231;50.866;7.944;2022-10-31T00:13:14;8.10;99.90
16247;DHT22;8231;50.866;7.944;2022-10-31T00:15:42;8.10;99.90
16247;DHT22;8231;50.866;7.944;2022-10-31T00:18:10;8.00;99.90
16247;DHT22;8231;50.866;7.944;2022-10-31T00:20:39;8.00;99.90
16247;DHT22;8231;50.866;7.944;2022-10-31T00:23:09;7.90;99.90
16247;DHT22;8231;50.866;7.944;2022-10-31T00:25:39;7.90;99.90
16247;DHT22;8231;50.866;7.944;2022-10-31T00:28:09;7.90;99.90
16247;DHT22;8231;50.866;7.944;2022-10-31T00:30:38;7.80;99.90
16247;DHT22;8231;50.866;7.944;2022-10-31T00:33:06;7.90;99.90
16247;DHT22;8231;50.866;7.944;2022-10-31T00:35:34;7.90;99.90
16247;DHT22;8231;50.866;7.944;2022-10-31T00:38:03;7.80;99.90
16247;DHT22;8231;50.866;7.944;2022-10-31T00:40:31;7.80;99.90
16247;DHT22;8231;50.866;7.944;2022-10-31T00:43:00;7.80;99.90
16247;DHT22;8231;50.866;7.944;2022-10-31T00:45:29;7.80;99.90
16247;DHT22;8231;50.866;7.944;2022-10-31T00:47:57;7.80;99.90
16247;DHT22;8231;50.866;7.944;2022-10-31T00:50:26;7.80;99.90
16247;DHT22;8231;50.866;7.944;2022-10-31T00:52:54;7.90;99.90
16247;DHT22;8231;50.866;7.944;2022-10-31T00:55:24;7.90;99.90
16247;DHT22;8231;50.866;7.944;2022-10-31T00:57:53;7.90;99.90
16247;DHT22;8231;50.866;7.944;2022-10-31T01:00:21;7.90;99.90
16247;DHT22;8231;50.866;7.944;2022-10-31T01:02:49;7.90;99.90
16247;DHT22;8231;50.866;7.944;2022-10-31T01:05:18;7.90;99.90
16247;DHT22;8231;50.866;7.944;2022-10-31T01:07:46;7.80;99.90
16247;DHT22;8231;50.866;7.944;2022-10-31T01:10:15;7.80;99.90
16247;DHT22;8231;50.866;7.944;2022-10-31T01:12:47;7.80;99.90
16247;DHT22;8231;50.866;7.944;2022-10-31T01:15:18;7.90;99.90
16247;DHT22;8231;50.866;7.944;2022-10-31T01:17:47;7.80;99.90
16247;DHT22;8231;50.866;7.944;2022-10-31T01:20:16;7.80;99.90
16247;DHT22;8231;50.866;7.944;2022-10-31T01:22:45;7.80;99.90
16247;DHT22;8231;50.866;7.944;2022-10-31T01:25:13;7.80;99.90
16247;DHT22;8231;50.866;7.944;2022-10-31T01:27:41;7.90;99.90
16247;DHT22;8231;50.866;7.944;2022-10-31T01:30:12;7.90;99.90
16247;DHT22;8231;50.866;7.944;2022-10-31T01:32:40;8.10;99.90
16247;DHT22;8231;50.866;7.944;2022-10-31T01:35:08;7.90;99.90
16247;DHT22;8231;50.866;7.944;2022-10-31T01:37:36;7.90;99.90
16247;DHT22;8231;50.866;7.944;2022-10-31T01:40:05;7.90;99.90
16247;DHT22;8231;50.866;7.944;2022-10-31T01:42:34;7.90;99.90
16247;DHT22;8231;50.866;7.944;2022-10-31T01:45:04;7.90;99.90
16247;DHT22;8231;50.866;7.944;2022-10-31T01:47:40;7.90;99.90
16247;DHT22;8231;50.866;7.944;2022-10-31T01:50:18;8.00;99.90
16247;DHT22;8231;50.866;7.944;2022-10-31T01:52:49;8.00;99.90
16247;DHT22;8231;50.866;7.944;2022-10-31T01:55:22;8.00;99.90
16247;DHT22;8231;50.866;7.944;2022-10-31T01:57:58;8.00;99.90
16247;DHT22;8231;50.866;7.944;2022-10-31T02:00:28;8.00;99.90
16247;DHT22;8231;50.866;7.944;2022-10-31T02:02:58;8.00;99.90
16247;DHT22;8231;50.866;7.944;2022-10-31T02:05:28;8.00;99.90
16247;DHT22;8231;50.866;7.944;2022-10-31T02:08:01;8.00;99.90
16247;DHT22;8231;50.866;7.944;2022-10-31T02:10:32;8.10;99.90
16247;DHT22;8231;50.866;7.944;2022-10-31T02:13:03;8.00;99.90
16247;DHT22;8231;50.866;7.944;2022-10-31T02:15:36;8.00;99.90
16247;DHT22;8231;50.866;7.944;2022-10-31T02:18:07;8.00;99.90
16247;DHT22;8231;50.866;7.944;2022-10-31T02:20:42;8.00;99.90
16247;DHT22;8231;50.866;7.944;2022-10-31T02:26:45;8.00;99.90
16247;DHT22;8231;50.866;7.944;2022-10-31T02:32:53;8.00;99.90
16247;DHT22;8231;50.866;7.944;2022-10-31T02:35:31;8.10;99.90
16247;DHT22;8231;50.866;7.944;2022-10-31T02:38:04;8.00;99.90
16247;DHT22;8231;50.866;7.944;2022-10-31T02:40:38;8.00;99.90
16247;DHT22;8231;50.866;7.944;2022-10-31T02:43:38;8.00;99.90
16247;DHT22;8231;50.866;7.944;2022-10-31T02:46:11;8.00;99.90
16247;DHT22;8231;50.866;7.944;2022-10-31T02:48:44;7.90;99.90
16247;DHT22;8231;50.866;7.944;2022-10-31T02:51:13;8.10;99.90
16247;DHT22;8231;50.866;7.944;2022-10-31T02:53:42;7.90;99.90
16247;DHT22;8231;50.866;7.944;2022-10-31T02:56:12;7.80;99.90
16247;DHT22;8231;50.866;7.944;2022-10-31T02:58:44;7.80;99.90
16247;DHT22;8231;50.866;7.944;2022-10-31T03:01:22;7.90;99.90
16247;DHT22;8231;50.866;7.944;2022-10-31T03:04:25;7.80;99.90
16247;DHT22;8231;50.866;7.944;2022-10-31T03:07:00;7.80;99.90
16247;DHT22;8231;50.866;7.944;2022-10-31T03:09:37;7.80;99.90
16247;DHT22;8231;50.866;7.944;2022-10-31T03:12:11;7.90;99.90
16247;DHT22;8231;50.866;7.944;2022-10-31T03:14:50;7.90;99.90
16247;DHT22;8231;50.866;7.944;2022-10-31T03:17:23;7.80;99.90
16247;DHT22;8231;50.866;7.944;2022-10-31T03:19:58;7.80;99.90
16247;DHT22;8231;50.866;7.944;2022-10-31T03:22:29;8.00;99.90
16247;DHT22;8231;50.866;7.944;2022-10-31T03:25:01;7.70;99.90
16247;DHT22;8231;50.866;7.944;2022-10-31T03:27:33;7.70;99.90
16247;DHT22;8231;50.866;7.944;2022-10-31T03:30:05;7.70;99.90
16247;DHT22;8231;50.866;7.944;2022-10-31T03:32:50;7.70;99.90
16247;DHT22;8231;50.866;7.944;2022-10-31T03:35:23;7.60;99.90
16247;DHT22;8231;50.866;7.944;2022-10-31T03:37:55;7.60;99.90
16247;DHT22;8231;50.866;7.944;2022-10-31T03:40:25;7.60;99.90
16247;DHT22;8231;50.866;7.944;2022-10-31T03:42:57;7.60;99.90
16247;DHT22;8231;50.866;7.944;2022-10-31T03:45:30;7.60;99.90
16247;DHT22;8231;50.866;7.944;2022-10-31T03:47:59;7.60;99.90
16247;DHT22;8231;50.866;7.944;2022-10-31T03:50:37;7.60;99.90
16247;DHT22;8231;50.866;7.944;2022-10-31T03:53:09;7.50;99.90
16247;DHT22;8231;50.866;7.944;2022-10-31T03:55:41;7.80;99.90
16247;DHT22;8231;50.866;7.944;2022-10-31T03:58:15;7.50;99.90
16247;DHT22;8231;50.866;7.944;2022-10-31T04:00:55;7.60;99.90
16247;DHT22;8231;50.866;7.944;2022-10-31T04:03:26;7.40;99.90
16247;DHT22;8231;50.866;7.944;2022-10-31T04:06:01;7.50;99.90
16247;DHT22;8231;50.866;7.944;2022-10-31T04:08:32;7.50;99.90
16247;DHT22;8231;50.866;7.944;2022-10-31T04:11:03;7.50;99.90
16247;DHT22;8231;50.866;7.944;2022-10-31T04:13:34;7.50;99.90
16247;DHT22;8231;50.866;7.944;2022-10-31T04:16:11;7.40;99.90
16247;DHT22;8231;50.866;7.944;2022-10-31T04:18:43;7.50;99.90
16247;DHT22;8231;50.866;7.944;2022-10-31T04:21:13;7.40;99.90
16247;DHT22;8231;50.866;7.944;2022-10-31T04:23:41;7.40;99.90
16247;DHT22;8231;50.866;7.944;2022-10-31T04:26:17;7.40;99.90
16247;DHT22;8231;50.866;7.944;2022-10-31T04:28:46;7.40;99.90
16247;DHT22;8231;50.866;7.944;2022-10-31T04:31:14;7.50;99.90
16247;DHT22;8231;50.866;7.944;2022-10-31T04:33:44;7.40;99.90
16247;DHT22;8231;50.866;7.944;2022-10-31T04:36:13;7.40;99.90
16247;DHT22;8231;50.866;7.944;2022-10-31T04:38:42;7.40;99.90
16247;DHT22;8231;50.866;7.944;2022-10-31T04:41:23;7.30;99.90
16247;DHT22;8231;50.866;7.944;2022-10-31T04:44:00;7.40;99.90
16247;DHT22;8231;50.866;7.944;2022-10-31T04:46:29;7.30;99.90
16247;DHT22;8231;50.866;7.944;2022-10-31T04:48:58;7.30;99.90
16247;DHT22;8231;50.866;7.944;2022-10-31T04:51:28;7.20;99.90
16247;DHT22;8231;50.866;7.944;2022-10-31T04:53:56;7.20;99.90
16247;DHT22;8231;50.866;7.944;2022-10-31T04:56:27;7.10;99.90
16247;DHT22;8231;50.866;7.944;2022-10-31T04:58:58;7.10;99.90
16247;DHT22;8231;50.866;7.944;2022-10-31T05:01:30;7.10;99.90
16247;DHT22;8231;50.866;7.944;2022-10-31T05:03:59;7.00;99.90
16247;DHT22;8231;50.866;7.944;2022-10-31T05:06:29;7.00;99.90
16247;DHT22;8231;50.866;7.944;2022-10-31T05:08:58;7.00;99.90
16247;DHT22;8231;50.866;7.944;2022-10-31T05:11:26;6.90;99.90
16247;DHT22;8231;50.866;7.944;2022-10-31T05:14:01;6.90;99.90
16247;DHT22;8231;50.866;7.944;2022-10-31T05:16:59;6.90;99.90
16247;DHT22;8231;50.866;7.944;2022-10-31T05:19:45;7.00;99.90
16247;DHT22;8231;50.866;7.944;2022-10-31T05:22:33;6.90;99.90
16247;DHT22;8231;50.866;7.944;2022-10-31T05:25:01;6.90;99.90
16247;DHT22;8231;50.866;7.944;2022-10-31T05:27:30;6.90;99.90
16247;DHT22;8231;50.866;7.944;2022-10-31T05:29:58;6.90;99.90
16247;DHT22;8231;50.866;7.944;2022-10-31T05:32:37;6.90;99.90
16247;DHT22;8231;50.866;7.944;2022-10-31T05:35:37;6.90;99.90
16247;DHT22;8231;50.866;7.944;2022-10-31T05:38:29;6.80;99.90
16247;DHT22;8231;50.866;7.944;2022-10-31T05:41:04;6.80;99.90
16247;DHT22;8231;50.866;7.944;2022-10-31T05:43:33;6.80;99.90
16247;DHT22;8231;50.866;7.944;2022-10-31T05:46:04;6.80;99.90
16247;DHT22;8231;50.866;7.944;2022-10-31T05:48:55;6.80;99.90
16247;DHT22;8231;50.866;7.944;2022-10-31T05:51:47;6.80;99.90
16247;DHT22;8231;50.866;7.944;2022-10-31T05:54:17;6.70;99.90
16247;DHT22;8231;50.866;7.944;2022-10-31T05:56:45;6.70;99.90
16247;DHT22;8231;50.866;7.944;2022-10-31T05:59:13;6.70;99.90
16247;DHT22;8231;50.866;7.944;2022-10-31T06:01:41;6.70;99.90
16247;DHT22;8231;50.866;7.944;2022-10-31T06:04:25;6.60;99.90
16247;DHT22;8231;50.866;7.944;2022-10-31T06:06:53;6.50;99.90
16247;DHT22;8231;50.866;7.944;2022-10-31T06:09:23;6.50;99.90
16247;DHT22;8231;50.866;7.944;2022-10-31T06:11:51;6.50;99.90
16247;DHT22;8231;50.866;7.944;2022-10-31T06:14:25;6.40;99.90
16247;DHT22;8231;50.866;7.944;2022-10-31T06:16:55;6.40;99.90
16247;DHT22;8231;50.866;7.944;2022-10-31T06:19:49;6.40;99.90
16247;DHT22;8231;50.866;7.944;2022-10-31T06:22:20;6.40;99.90
16247;DHT22;8231;50.866;7.944;2022-10-31T06:24:50;6.50;99.90
16247;DHT22;8231;50.866;7.944;2022-10-31T06:27:26;6.50;99.90
16247;DHT22;8231;50.866;7.944;2022-10-31T06:29:55;6.40;99.90
16247;DHT22;8231;50.866;7.944;2022-10-31T06:32:31;6.40;99.90
16247;DHT22;8231;50.866;7.944;2022-10-31T06:34:59;6.40;99.90
16247;DHT22;8231;50.866;7.944;2022-10-31T06:37:28;6.40;99.90
16247;DHT22;8231;50.866;7.944;2022-10-31T06:40:04;6.40;99.90
16247;DHT22;8231;50.866;7.944;2022-10-31T06:42:56;6.50;99.90
16247;DHT22;8231;50.866;7.944;2022-10-31T06:45:24;6.50;99.90
16247;DHT22;8231;50.866;7.944;2022-10-31T06:48:11;6.50;99.90
16247;DHT22;8231;50.866;7.944;2022-10-31T06:51:02;6.50;99.90
16247;DHT22;8231;50.866;7.944;2022-10-31T06:53:31;6.60;99.90
16247;DHT22;8231;50.866;7.944;2022-10-31T06:56:01;6.60;99.90
16247;DHT22;8231;50.866;7.944;2022-10-31T06:58:34;6.70;99.90
16247;DHT22;8231;50.866;7.944;2022-10-31T07:01:04;6.70;99.90
16247;DHT22;8231;50.866;7.944;2022-10-31T07:03:33;6.80;99.90
16247;DHT22;8231;50.866;7.944;2022-10-31T07:06:01;6.90;99.90
16247;DHT22;8231;50.866;7.944;2022-10-31T07:08:29;6.90;99.90
16247;DHT22;8231;50.866;7.944;2022-10-31T07:10:58;7.00;99.90
16247;DHT22;8231;50.866;7.944;2022-10-31T07:13:29;7.10;99.90
16247;DHT22;8231;50.866;7.944;2022-10-31T07:16:05;7.10;99.90
16247;DHT22;8231;50.866;7.944;2022-10-31T07:18:35;7.20;99.90
16247;DHT22;8231;50.866;7.944;2022-10-31T07:21:29;7.30;99.90
16247;DHT22;8231;50.866;7.944;2022-10-31T07:23:57;8.50;99.90
16247;DHT22;8231;50.866;7.944;2022-10-31T07:26:43;7.50;99.90
16247;DHT22;8231;50.866;7.944;2022-10-31T07:29:15;7.60;99.90
16247;DHT22;8231;50.866;7.944;2022-10-31T07:31:45;7.70;99.90
16247;DHT22;8231;50.866;7.944;2022-10-31T07:34:20;7.70;99.90
16247;DHT22;8231;50.866;7.944;2022-10-31T07:37:13;7.90;99.90
16247;DHT22;8231;50.866;7.944;2022-10-31T07:39:42;8.00;99.90
16247;DHT22;8231;50.866;7.944;2022-10-31T07:42:10;8.10;99.90
16247;DHT22;8231;50.866;7.944;2022-10-31T07:44:44;8.20;99.90
16247;DHT22;8231;50.866;7.944;2022-10-31T07:47:38;8.40;99.90
16247;DHT22;8231;50.866;7.944;2022-10-31T07:50:28;8.50;99.90
16247;DHT22;8231;50.866;7.944;2022-10-31T07:53:15;8.60;99.90
16247;DHT22;8231;50.866;7.944;2022-10-31T07:55:53;8.80;99.90
16247;DHT22;8231;50.866;7.944;2022-10-31T07:58:24;9.20;99.90
16247;DHT22;8231;50.866;7.944;2022-10-31T08:00:53;9.00;99.90
16247;DHT22;8231;50.866;7.944;2022-10-31T08:03:31;9.20;99.90
16247;DHT22;8231;50.866;7.944;2022-10-31T08:06:22;9.30;99.90
16247;DHT22;8231;50.866;7.944;2022-10-31T08:09:10;9.40;99.90
16247;DHT22;8231;50.866;7.944;2022-10-31T08:11:39;9.50;99.90
16247;DHT22;8231;50.866;7.944;2022-10-31T08:14:07;9.70;99.90
16247;DHT22;8231;50.866;7.944;2022-10-31T08:16:36;9.80;99.90
16247;DHT22;8231;50.866;7.944;2022-10-31T08:19:06;9.90;99.90
16247;DHT22;8231;50.866;7.944;2022-10-31T08:21:37;10.00;99.90
16247;DHT22;8231;50.866;7.944;2022-10-31T08:24:07;10.20;99.90
16247;DHT22;8231;50.866;7.944;2022-10-31T08:26:36;10.60;99.90
16247;DHT22;8231;50.866;7.944;2022-10-31T08:29:07;10.50;99.90
16247;DHT22;8231;50.866;7.944;2022-10-31T08:31:38;10.60;99.90
16247;DHT22;8231;50.866;7.944;2022-10-31T08:34:27;10.80;99.90
16247;DHT22;8231;50.866;7.944;2022-10-31T08:37:14;10.90;99.90
16247;DHT22;8231;50.866;7.944;2022-10-31T08:39:49;11.00;99.90
16247;DHT22;8231;50.866;7.944;2022-10-31T08:42:17;11.20;99.90
16247;DHT22;8231;50.866;7.944;2022-10-31T08:44:45;11.30;99.90
16247;DHT22;8231;50.866;7.944;2022-10-31T08:47:15;11.50;99.90
16247;DHT22;8231;50.866;7.944;2022-10-31T08:49:43;11.70;99.90
16247;DHT22;8231;50.866;7.944;2022-10-31T08:52:11;11.80;99.90
16247;DHT22;8231;50.866;7.944;2022-10-31T08:54:42;12.00;99.90
16247;DHT22;8231;50.866;7.944;2022-10-31T08:57:30;12.10;99.90
16247;DHT22;8231;50.866;7.944;2022-10-31T08:59:59;12.30;99.90
16247;DHT22;8231;50.866;7.944;2022-10-31T09:03:06;12.50;99.90
16247;DHT22;8231;50.866;7.944;2022-10-31T09:05:34;12.70;99.90
16247;DHT22;8231;50.866;7.944;2022-10-31T09:08:04;12.90;99.90
16247;DHT22;8231;50.866;7.944;2022-10-31T09:10:37;13.20;99.90
16247;DHT22;8231;50.866;7.944;2022-10-31T09:13:08;13.50;99.90
16247;DHT22;8231;50.866;7.944;2022-10-31T09:15:39;13.80;99.90
16247;DHT22;8231;50.866;7.944;2022-10-31T09:18:19;14.00;99.90
16247;DHT22;8231;50.866;7.944;2022-10-31T09:21:00;14.20;99.90
16247;DHT22;8231;50.866;7.944;2022-10-31T09:23:30;14.40;99.90
16247;DHT22;8231;50.866;7.944;2022-10-31T09:26:01;14.50;99.90
16247;DHT22;8231;50.866;7.944;2022-10-31T09:28:46;14.70;99.90
16247;DHT22;8231;50.866;7.944;2022-10-31T09:31:17;14.90;99.90
16247;DHT22;8231;50.866;7.944;2022-10-31T09:33:59;15.10;99.90
16247;DHT22;8231;50.866;7.944;2022-10-31T09:36:36;15.20;99.90
16247;DHT22;8231;50.866;7.944;2022-10-31T09:39:08;15.30;99.90
16247;DHT22;8231;50.866;7.944;2022-10-31T09:41:58;15.50;99.90
16247;DHT22;8231;50.866;7.944;2022-10-31T09:44:36;15.60;99.90
16247;DHT22;8231;50.866;7.944;2022-10-31T09:47:20;15.70;99.90
16247;DHT22;8231;50.866;7.944;2022-10-31T09:50:15;15.90;99.90
16247;DHT22;8231;50.866;7.944;2022-10-31T09:52:54;16.10;99.90
16247;DHT22;8231;50.866;7.944;2022-10-31T09:55:30;16.10;99.90
16247;DHT22;8231;50.866;7.944;2022-10-31T09:57:59;16.30;99.90
16247;DHT22;8231;50.866;7.944;2022-10-31T10:00:29;16.40;99.90
16247;DHT22;8231;50.866;7.944;2022-10-31T10:03:04;16.50;99.90
16247;DHT22;8231;50.866;7.944;2022-10-31T10:05:51;16.60;99.90
16247;DHT22;8231;50.866;7.944;2022-10-31T10:08:35;16.80;99.90
16247;DHT22;8231;50.866;7.944;2022-10-31T10:11:40;17.00;99.90
16247;DHT22;8231;50.866;7.944;2022-10-31T10:14:23;17.00;99.90
16247;DHT22;8231;50.866;7.944;2022-10-31T10:17:07;17.20;99.90
16247;DHT22;8231;50.866;7.944;2022-10-31T10:19:50;17.20;99.90
16247;DHT22;8231;50.866;7.944;2022-10-31T10:22:26;17.40;99.90
16247;DHT22;8231;50.866;7.944;2022-10-31T10:25:08;17.50;99.90
16247;DHT22;8231;50.866;7.944;2022-10-31T10:27:48;17.50;99.90
16247;DHT22;8231;50.866;7.944;2022-10-31T10:30:18;17.60;99.90
16247;DHT22;8231;50.866;7.944;2022-10-31T10:32:49;17.70;99.90
16247;DHT22;8231;50.866;7.944;2022-10-31T10:35:25;17.80;99.90
16247;DHT22;8231;50.866;7.944;2022-10-31T10:38:01;17.80;99.90
16247;DHT22;8231;50.866;7.944;2022-10-31T10:40:31;17.90;99.90
16247;DHT22;8231;50.866;7.944;2022-10-31T10:43:15;18.00;99.90
16247;DHT22;8231;50.866;7.944;2022-10-31T10:46:16;18.20;99.90
16247;DHT22;8231;50.866;7.944;2022-10-31T10:49:10;18.30;99.90
16247;DHT22;8231;50.866;7.944;2022-10-31T10:51:44;18.40;99.90
16247;DHT22;8231;50.866;7.944;2022-10-31T10:54:41;18.40;99.90
16247;DHT22;8231;50.866;7.944;2022-10-31T10:57:18;18.40;99.90
16247;DHT22;8231;50.866;7.944;2022-10-31T10:59:49;18.50;99.90
16247;DHT22;8231;50.866;7.944;2022-10-31T11:02:22;18.50;99.90
16247;DHT22;8231;50.866;7.944;2022-10-31T11:04:52;18.60;99.90
16247;DHT22;8231;50.866;7.944;2022-10-31T11:07:21;18.50;99.90
16247;DHT22;8231;50.866;7.944;2022-10-31T11:09:51;18.60;99.90
16247;DHT22;8231;50.866;7.944;2022-10-31T11:12:21;18.80;99.90
16247;DHT22;8231;50.866;7.944;2022-10-31T11:14:53;18.80;99.90
16247;DHT22;8231;50.866;7.944;2022-10-31T11:17:29;18.90;99.90
16247;DHT22;8231;50.866;7.944;2022-10-31T11:20:16;19.00;99.90
16247;DHT22;8231;50.866;7.944;2022-10-31T11:23:01;19.10;99.90
16247;DHT22;8231;50.866;7.944;2022-10-31T11:25:31;19.20;99.90
16247;DHT22;8231;50.866;7.944;2022-10-31T11:28:00;19.20;99.90
16247;DHT22;8231;50.866;7.944;2022-10-31T11:30:29;19.20;99.90
16247;DHT22;8231;50.866;7.944;2022-10-31T11:32:58;19.30;99.90
16247;DHT22;8231;50.866;7.944;2022-10-31T11:35:27;19.50;99.90
16247;DHT22;8231;50.866;7.944;2022-10-31T11:37:58;19.70;99.90
16247;DHT22;8231;50.866;7.944;2022-10-31T11:40:27;19.80;99.90
16247;DHT22;8231;50.866;7.944;2022-10-31T11:42:57;19.80;99.90
16247;DHT22;8231;50.866;7.944;2022-10-31T11:45:29;19.80;99.90
16247;DHT22;8231;50.866;7.944;2022-10-31T11:48:00;19.60;99.90
16247;DHT22;8231;50.866;7.944;2022-10-31T11:50:34;19.80;99.90
16247;DHT22;8231;50.866;7.944;2022-10-31T11:53:03;19.80;99.90
16247;DHT22;8231;50.866;7.944;2022-10-31T11:55:34;19.80;99.90
16247;DHT22;8231;50.866;7.944;2022-10-31T11:58:18;19.80;99.90
16247;DHT22;8231;50.866;7.944;2022-10-31T12:00:49;19.80;99.90
16247;DHT22;8231;50.866;7.944;2022-10-31T12:03:33;19.80;99.90
16247;DHT22;8231;50.866;7.944;2022-10-31T12:06:07;20.00;99.90
16247;DHT22;8231;50.866;7.944;2022-10-31T12:08:36;20.00;99.90
16247;DHT22;8231;50.866;7.944;2022-10-31T12:11:11;20.20;99.90
16247;DHT22;8231;50.866;7.944;2022-10-31T12:13:52;20.50;99.90
16247;DHT22;8231;50.866;7.944;2022-10-31T12:16:39;21.00;99.90
16247;DHT22;8231;50.866;7.944;2022-10-31T12:19:17;21.50;99.90
16247;DHT22;8231;50.866;7.944;2022-10-31T12:22:04;21.80;99.90
16247;DHT22;8231;50.866;7.944;2022-10-31T12:24:46;21.90;99.90
16247;DHT22;8231;50.866;7.944;2022-10-31T12:27:27;21.60;99.90
16247;DHT22;8231;50.866;7.944;2022-10-31T12:30:17;21.40;99.90
16247;DHT22;8231;50.866;7.944;2022-10-31T12:35:51;20.80;99.90
16247;DHT22;8231;50.866;7.944;2022-10-31T12:38:36;20.70;99.90
16247;DHT22;8231;50.866;7.944;2022-10-31T12:41:21;20.80;99.90
16247;DHT22;8231;50.866;7.944;2022-10-31T12:43:57;20.60;99.90
16247;DHT22;8231;50.866;7.944;2022-10-31T12:46:52;20.40;99.90
16247;DHT22;8231;50.866;7.944;2022-10-31T12:49:39;20.60;99.90
16247;DHT22;8231;50.866;7.944;2022-10-31T12:52:21;20.60;99.90
16247;DHT22;8231;50.866;7.944;2022-10-31T12:55:00;20.60;99.90
16247;DHT22;8231;50.866;7.944;2022-10-31T12:57:35;20.60;99.90
16247;DHT22;8231;50.866;7.944;2022-10-31T13:00:05;20.90;99.90
16247;DHT22;8231;50.866;7.944;2022-10-31T13:02:40;21.10;99.90
16247;DHT22;8231;50.866;7.944;2022-10-31T13:05:14;21.60;99.90
16247;DHT22;8231;50.866;7.944;2022-10-31T13:07:46;21.90;99.90
16247;DHT22;8231;50.866;7.944;2022-10-31T13:10:20;22.10;99.90
16247;DHT22;8231;50.866;7.944;2022-10-31T13:12:53;22.10;99.90
16247;DHT22;8231;50.866;7.944;2022-10-31T13:15:23;22.00;99.90
16247;DHT22;8231;50.866;7.944;2022-10-31T13:17:55;21.90;99.90
16247;DHT22;8231;50.866;7.944;2022-10-31T13:20:26;21.60;99.90
16247;DHT22;8231;50.866;7.944;2022-10-31T13:23:03;21.40;99.90
16247;DHT22;8231;50.866;7.944;2022-10-31T13:25:54;21.10;99.90
16247;DHT22;8231;50.866;7.944;2022-10-31T13:28:29;20.90;99.90
16247;DHT22;8231;50.866;7.944;2022-10-31T13:30:57;20.90;99.90
16247;DHT22;8231;50.866;7.944;2022-10-31T13:33:30;20.70;99.90
16247;DHT22;8231;50.866;7.944;2022-10-31T13:36:10;20.60;99.90
16247;DHT22;8231;50.866;7.944;2022-10-31T13:38:42;20.30;99.90
16247;DHT22;8231;50.866;7.944;2022-10-31T13:41:26;20.00;99.90
16247;DHT22;8231;50.866;7.944;2022-10-31T13:44:01;20.20;99.90
16247;DHT22;8231;50.866;7.944;2022-10-31T13:46:36;20.10;99.90
16247;DHT22;8231;50.866;7.944;2022-10-31T13:49:24;20.10;99.90
16247;DHT22;8231;50.866;7.944;2022-10-31T13:51:52;20.00;99.90
16247;DHT22;8231;50.866;7.944;2022-10-31T13:54:22;19.90;99.90
16247;DHT22;8231;50.866;7.944;2022-10-31T13:56:51;19.70;99.90
16247;DHT22;8231;50.866;7.944;2022-10-31T13:59:22;19.70;99.90
16247;DHT22;8231;50.866;7.944;2022-10-31T14:01:55;19.50;99.90
16247;DHT22;8231;50.866;7.944;2022-10-31T14:04:27;19.60;99.90
16247;DHT22;8231;50.866;7.944;2022-10-31T14:06:59;19.50;99.90
16247;DHT22;8231;50.866;7.944;2022-10-31T14:09:35;19.50;99.90
16247;DHT22;8231;50.866;7.944;2022-10-31T14:12:06;19.60;99.90
16247;DHT22;8231;50.866;7.944;2022-10-31T14:14:42;19.50;99.90
16247;DHT22;8231;50.866;7.944;2022-10-31T14:17:20;19.50;99.90
16247;DHT22;8231;50.866;7.944;2022-10-31T14:20:22;19.50;99.90
16247;DHT22;8231;50.866;7.944;2022-10-31T14:22:51;19.40;99.90
16247;DHT22;8231;50.866;7.944;2022-10-31T14:25:29;19.20;99.90
16247;DHT22;8231;50.866;7.944;2022-10-31T14:27:59;19.20;99.90
16247;DHT22;8231;50.866;7.944;2022-10-31T14:30:29;19.30;99.90
16247;DHT22;8231;50.866;7.944;2022-10-31T14:32:59;19.10;99.90
16247;DHT22;8231;50.866;7.944;2022-10-31T14:35:42;19.10;99.90
16247;DHT22;8231;50.866;7.944;2022-10-31T14:38:40;19.00;99.90
16247;DHT22;8231;50.866;7.944;2022-10-31T14:41:30;18.90;99.90
16247;DHT22;8231;50.866;7.944;2022-10-31T14:47:06;18.80;99.90
16247;DHT22;8231;50.866;7.944;2022-10-31T14:49:57;18.70;99.90
16247;DHT22;8231;50.866;7.944;2022-10-31T14:52:32;18.60;99.90
16247;DHT22;8231;50.866;7.944;2022-10-31T14:55:06;18.60;99.90
16247;DHT22;8231;50.866;7.944;2022-10-31T14:57:37;18.50;99.90
16247;DHT22;8231;50.866;7.944;2022-10-31T15:00:08;18.50;99.90
16247;DHT22;8231;50.866;7.944;2022-10-31T15:02:41;18.40;99.90
16247;DHT22;8231;50.866;7.944;2022-10-31T15:05:12;18.40;99.90
16247;DHT22;8231;50.866;7.944;2022-10-31T15:07:51;18.30;99.90
16247;DHT22;8231;50.866;7.944;2022-10-31T15:10:21;18.40;99.90
16247;DHT22;8231;50.866;7.944;2022-10-31T15:12:49;18.10;99.90
16247;DHT22;8231;50.866;7.944;2022-10-31T15:15:20;18.20;99.90
16247;DHT22;8231;50.866;7.944;2022-10-31T15:17:51;18.20;99.90
16247;DHT22;8231;50.866;7.944;2022-10-31T15:20:21;18.10;99.90
16247;DHT22;8231;50.866;7.944;2022-10-31T15:22:53;18.10;99.90
16247;DHT22;8231;50.866;7.944;2022-10-31T15:25:24;18.10;99.90
16247;DHT22;8231;50.866;7.944;2022-10-31T15:27:53;17.90;99.90
16247;DHT22;8231;50.866;7.944;2022-10-31T15:30:23;17.90;99.90
16247;DHT22;8231;50.866;7.944;2022-10-31T15:32:52;17.90;99.90
16247;DHT22;8231;50.866;7.944;2022-10-31T15:35:26;17.90;99.90
16247;DHT22;8231;50.866;7.944;2022-10-31T15:37:57;17.80;99.90
16247;DHT22;8231;50.866;7.944;2022-10-31T15:40:27;17.70;99.90
16247;DHT22;8231;50.866;7.944;2022-10-31T15:42:57;17.70;99.90
16247;DHT22;8231;50.866;7.944;2022-10-31T15:45:27;17.70;99.90
16247;DHT22;8231;50.866;7.944;2022-10-31T15:47:58;17.70;99.90
16247;DHT22;8231;50.866;7.944;2022-10-31T15:50:37;17.70;99.90
16247;DHT22;8231;50.866;7.944;2022-10-31T15:53:16;17.60;99.90
16247;DHT22;8231;50.866;7.944;2022-10-31T15:55:48;17.50;99.90
16247;DHT22;8231;50.866;7.944;2022-10-31T15:58:17;17.40;99.90
16247;DHT22;8231;50.866;7.944;2022-10-31T16:00:57;17.20;99.90
16247;DHT22;8231;50.866;7.944;2022-10-31T16:03:28;17.20;99.90
16247;DHT22;8231;50.866;7.944;2022-10-31T16:05:58;17.00;99.90
16247;DHT22;8231;50.866;7.944;2022-10-31T16:08:34;16.90;99.90
16247;DHT22;8231;50.866;7.944;2022-10-31T16:11:16;16.90;99.90
16247;DHT22;8231;50.866;7.944;2022-10-31T16:13:53;16.70;99.90
16247;DHT22;8231;50.866;7.944;2022-10-31T16:16:22;16.60;99.90
16247;DHT22;8231;50.866;7.944;2022-10-31T16:19:15;16.50;99.90
16247;DHT22;8231;50.866;7.944;2022-10-31T16:21:44;16.50;99.90
16247;DHT22;8231;50.866;7.944;2022-10-31T16:24:19;16.30;99.90
16247;DHT22;8231;50.866;7.944;2022-10-31T16:26:49;16.30;99.90
16247;DHT22;8231;50.866;7.944;2022-10-31T16:29:33;16.20;99.90
16247;DHT22;8231;50.866;7.944;2022-10-31T16:32:03;16.10;99.90
16247;DHT22;8231;50.866;7.944;2022-10-31T16:34:31;16.00;99.90
16247;DHT22;8231;50.866;7.944;2022-10-31T16:37:01;16.00;99.90
16247;DHT22;8231;50.866;7.944;2022-10-31T16:39:36;16.00;99.90
16247;DHT22;8231;50.866;7.944;2022-10-31T16:42:04;15.90;99.90
16247;DHT22;8231;50.866;7.944;2022-10-31T16:44:32;15.90;99.90
16247;DHT22;8231;50.866;7.944;2022-10-31T16:47:09;15.90;99.90
16247;DHT22;8231;50.866;7.944;2022-10-31T16:49:37;15.90;99.90
16247;DHT22;8231;50.866;7.944;2022-10-31T16:52:06;15.80;99.90
16247;DHT22;8231;50.866;7.944;2022-10-31T16:54:35;15.80;99.90